Swink, Colorado
Current Conditions -  °F | °C
As of 5:53 AM on Friday 19 Dec 2014 (Local Time) from KLHX Reporting Station
Clear Clear  
Wind Chill: 22°   Ceiling: Unl
Heat Index: 27°   Visibility: 9mi
Dew Point: 24°   Wind: 5mph
Humidity: 89%   Direction: 250°WSW
Pressure: 30.09"   Gusts: NA
Location:  38.01°N, 103.63°W
Report Text: KLHX 191253Z AUTO 25004KT 9SM CLR M03/M04 A3009 RMK AO2 SLP206 I1000 T10281044
Loading
Personal Weather Stations






























Interactive Weather Map New forecast layout! Learn more

10-Day Weather Forecast

Advertisements
Track Severe Weather on mobile